sensor_id;sensor_type;location;lat;lon;timestamp;P1;durP1;ratioP1;P2;durP2;ratioP2
21036;SDS011;10677;50.942;4.028;2023-07-13T00:00:01;9.30;;;1.33;;
21036;SDS011;10677;50.942;4.028;2023-07-13T00:02:30;7.88;;;1.52;;
21036;SDS011;10677;50.942;4.028;2023-07-13T00:04:57;9.90;;;1.92;;
21036;SDS011;10677;50.942;4.028;2023-07-13T00:07:23;6.25;;;2.00;;
21036;SDS011;10677;50.942;4.028;2023-07-13T00:09:48;5.60;;;1.50;;
21036;SDS011;10677;50.942;4.028;2023-07-13T00:12:25;7.95;;;2.05;;
21036;SDS011;10677;50.942;4.028;2023-07-13T00:14:52;8.65;;;1.90;;
21036;SDS011;10677;50.942;4.028;2023-07-13T00:17:18;8.95;;;1.55;;
21036;SDS011;10677;50.942;4.028;2023-07-13T00:19:44;8.25;;;2.42;;
21036;SDS011;10677;50.942;4.028;2023-07-13T00:22:10;5.32;;;1.50;;
21036;SDS011;10677;50.942;4.028;2023-07-13T00:24:36;8.15;;;2.10;;
21036;SDS011;10677;50.942;4.028;2023-07-13T00:27:06;9.50;;;1.95;;
21036;SDS011;10677;50.942;4.028;2023-07-13T00:29:33;8.70;;;1.55;;
21036;SDS011;10677;50.942;4.028;2023-07-13T00:31:59;9.18;;;1.83;;
21036;SDS011;10677;50.942;4.028;2023-07-13T00:34:25;7.93;;;1.73;;
21036;SDS011;10677;50.942;4.028;2023-07-13T00:36:51;11.07;;;1.98;;
21036;SDS011;10677;50.942;4.028;2023-07-13T00:39:17;8.43;;;2.72;;
21036;SDS011;10677;50.942;4.028;2023-07-13T00:41:42;9.77;;;2.08;;
21036;SDS011;10677;50.942;4.028;2023-07-13T00:44:18;11.13;;;2.50;;
21036;SDS011;10677;50.942;4.028;2023-07-13T00:46:48;7.13;;;1.40;;
21036;SDS011;10677;50.942;4.028;2023-07-13T00:49:20;12.55;;;2.00;;
21036;SDS011;10677;50.942;4.028;2023-07-13T00:51:49;14.82;;;2.20;;
21036;SDS011;10677;50.942;4.028;2023-07-13T00:54:30;7.75;;;1.88;;
21036;SDS011;10677;50.942;4.028;2023-07-13T00:57:01;13.38;;;2.28;;
21036;SDS011;10677;50.942;4.028;2023-07-13T00:59:29;10.98;;;2.00;;
21036;SDS011;10677;50.942;4.028;2023-07-13T01:01:56;6.53;;;1.83;;
21036;SDS011;10677;50.942;4.028;2023-07-13T01:04:25;8.85;;;1.95;;
21036;SDS011;10677;50.942;4.028;2023-07-13T01:06:51;10.20;;;2.00;;
21036;SDS011;10677;50.942;4.028;2023-07-13T01:09:18;9.85;;;2.05;;
21036;SDS011;10677;50.942;4.028;2023-07-13T01:11:45;8.65;;;2.00;;
21036;SDS011;10677;50.942;4.028;2023-07-13T01:14:12;12.10;;;2.00;;
21036;SDS011;10677;50.942;4.028;2023-07-13T01:16:38;10.70;;;2.50;;
21036;SDS011;10677;50.942;4.028;2023-07-13T01:19:12;12.20;;;2.03;;
21036;SDS011;10677;50.942;4.028;2023-07-13T01:22:05;7.63;;;1.88;;
21036;SDS011;10677;50.942;4.028;2023-07-13T01:24:40;9.35;;;1.90;;
21036;SDS011;10677;50.942;4.028;2023-07-13T01:27:08;9.57;;;2.10;;
21036;SDS011;10677;50.942;4.028;2023-07-13T01:29:36;12.35;;;1.98;;
21036;SDS011;10677;50.942;4.028;2023-07-13T01:32:10;10.35;;;2.28;;
21036;SDS011;10677;50.942;4.028;2023-07-13T01:34:38;8.63;;;2.95;;
21036;SDS011;10677;50.942;4.028;2023-07-13T01:37:07;11.75;;;2.22;;
21036;SDS011;10677;50.942;4.028;2023-07-13T01:39:34;13.52;;;3.03;;
21036;SDS011;10677;50.942;4.028;2023-07-13T01:42:00;13.00;;;2.58;;
21036;SDS011;10677;50.942;4.028;2023-07-13T01:44:26;11.50;;;3.17;;
21036;SDS011;10677;50.942;4.028;2023-07-13T01:46:52;11.93;;;2.47;;
21036;SDS011;10677;50.942;4.028;2023-07-13T01:49:17;10.63;;;2.90;;
21036;SDS011;10677;50.942;4.028;2023-07-13T01:51:43;12.68;;;3.08;;
21036;SDS011;10677;50.942;4.028;2023-07-13T01:54:08;11.45;;;2.50;;
21036;SDS011;10677;50.942;4.028;2023-07-13T01:56:34;12.77;;;2.35;;
21036;SDS011;10677;50.942;4.028;2023-07-13T01:59:00;17.83;;;3.17;;
21036;SDS011;10677;50.942;4.028;2023-07-13T02:01:25;12.45;;;2.80;;
21036;SDS011;10677;50.942;4.028;2023-07-13T02:03:51;12.70;;;2.35;;
21036;SDS011;10677;50.942;4.028;2023-07-13T02:06:17;16.55;;;3.05;;
21036;SDS011;10677;50.942;4.028;2023-07-13T02:08:42;9.40;;;2.20;;
21036;SDS011;10677;50.942;4.028;2023-07-13T02:11:08;15.98;;;2.70;;
21036;SDS011;10677;50.942;4.028;2023-07-13T02:13:34;10.98;;;2.60;;
21036;SDS011;10677;50.942;4.028;2023-07-13T02:16:00;12.48;;;2.65;;
21036;SDS011;10677;50.942;4.028;2023-07-13T02:18:25;15.07;;;2.95;;
21036;SDS011;10677;50.942;4.028;2023-07-13T02:20:51;14.95;;;2.90;;
21036;SDS011;10677;50.942;4.028;2023-07-13T02:23:17;14.48;;;2.58;;
21036;SDS011;10677;50.942;4.028;2023-07-13T02:25:43;12.52;;;2.90;;
21036;SDS011;10677;50.942;4.028;2023-07-13T02:28:09;9.77;;;2.20;;
21036;SDS011;10677;50.942;4.028;2023-07-13T02:30:35;9.10;;;2.50;;
21036;SDS011;10677;50.942;4.028;2023-07-13T02:33:01;14.90;;;2.70;;
21036;SDS011;10677;50.942;4.028;2023-07-13T02:35:26;11.73;;;2.15;;
21036;SDS011;10677;50.942;4.028;2023-07-13T02:37:52;9.25;;;1.98;;
21036;SDS011;10677;50.942;4.028;2023-07-13T02:40:18;12.52;;;3.38;;
21036;SDS011;10677;50.942;4.028;2023-07-13T02:42:44;7.00;;;2.38;;
21036;SDS011;10677;50.942;4.028;2023-07-13T02:45:10;6.00;;;1.90;;
21036;SDS011;10677;50.942;4.028;2023-07-13T02:47:36;14.20;;;2.80;;
21036;SDS011;10677;50.942;4.028;2023-07-13T02:50:02;11.07;;;2.60;;
21036;SDS011;10677;50.942;4.028;2023-07-13T02:52:28;8.98;;;2.45;;
21036;SDS011;10677;50.942;4.028;2023-07-13T02:54:53;8.80;;;2.15;;
21036;SDS011;10677;50.942;4.028;2023-07-13T02:57:19;8.68;;;2.80;;
21036;SDS011;10677;50.942;4.028;2023-07-13T02:59:45;9.98;;;2.47;;
21036;SDS011;10677;50.942;4.028;2023-07-13T03:02:11;9.55;;;2.83;;
21036;SDS011;10677;50.942;4.028;2023-07-13T03:04:36;18.50;;;3.03;;
21036;SDS011;10677;50.942;4.028;2023-07-13T03:07:02;12.10;;;2.72;;
21036;SDS011;10677;50.942;4.028;2023-07-13T03:09:29;10.68;;;2.50;;
21036;SDS011;10677;50.942;4.028;2023-07-13T03:11:56;11.18;;;2.58;;
21036;SDS011;10677;50.942;4.028;2023-07-13T03:14:22;12.20;;;2.85;;
21036;SDS011;10677;50.942;4.028;2023-07-13T03:16:48;10.85;;;2.47;;
21036;SDS011;10677;50.942;4.028;2023-07-13T03:19:14;11.00;;;2.63;;
21036;SDS011;10677;50.942;4.028;2023-07-13T03:21:40;9.85;;;2.78;;
21036;SDS011;10677;50.942;4.028;2023-07-13T03:24:05;10.98;;;2.97;;
21036;SDS011;10677;50.942;4.028;2023-07-13T03:26:31;11.13;;;2.80;;
21036;SDS011;10677;50.942;4.028;2023-07-13T03:28:57;10.02;;;2.45;;
21036;SDS011;10677;50.942;4.028;2023-07-13T03:31:24;22.13;;;3.03;;
21036;SDS011;10677;50.942;4.028;2023-07-13T03:33:53;16.85;;;3.20;;
21036;SDS011;10677;50.942;4.028;2023-07-13T03:36:23;11.65;;;2.65;;
21036;SDS011;10677;50.942;4.028;2023-07-13T03:38:51;10.70;;;2.42;;
21036;SDS011;10677;50.942;4.028;2023-07-13T03:41:19;14.35;;;2.80;;
21036;SDS011;10677;50.942;4.028;2023-07-13T03:43:46;9.95;;;2.92;;
21036;SDS011;10677;50.942;4.028;2023-07-13T03:46:13;11.73;;;2.88;;
21036;SDS011;10677;50.942;4.028;2023-07-13T03:48:38;13.65;;;3.50;;
21036;SDS011;10677;50.942;4.028;2023-07-13T03:51:06;11.57;;;2.97;;
21036;SDS011;10677;50.942;4.028;2023-07-13T03:53:31;16.13;;;3.17;;
21036;SDS011;10677;50.942;4.028;2023-07-13T03:55:57;10.75;;;2.80;;
21036;SDS011;10677;50.942;4.028;2023-07-13T03:58:30;11.52;;;3.15;;
21036;SDS011;10677;50.942;4.028;2023-07-13T04:00:58;15.00;;;4.13;;
21036;SDS011;10677;50.942;4.028;2023-07-13T04:03:24;9.98;;;3.05;;
21036;SDS011;10677;50.942;4.028;2023-07-13T04:05:52;12.60;;;3.30;;
21036;SDS011;10677;50.942;4.028;2023-07-13T04:08:24;9.82;;;2.95;;
21036;SDS011;10677;50.942;4.028;2023-07-13T04:11:01;14.43;;;3.05;;
21036;SDS011;10677;50.942;4.028;2023-07-13T04:13:28;8.00;;;2.85;;
21036;SDS011;10677;50.942;4.028;2023-07-13T04:15:54;12.40;;;2.92;;
21036;SDS011;10677;50.942;4.028;2023-07-13T04:18:20;9.43;;;2.78;;
21036;SDS011;10677;50.942;4.028;2023-07-13T04:20:46;13.07;;;2.63;;
21036;SDS011;10677;50.942;4.028;2023-07-13T04:23:13;10.45;;;3.13;;
21036;SDS011;10677;50.942;4.028;2023-07-13T04:25:39;14.25;;;3.60;;
21036;SDS011;10677;50.942;4.028;2023-07-13T04:28:09;15.38;;;3.58;;
21036;SDS011;10677;50.942;4.028;2023-07-13T04:30:35;10.40;;;3.70;;
21036;SDS011;10677;50.942;4.028;2023-07-13T04:33:00;15.07;;;3.20;;
21036;SDS011;10677;50.942;4.028;2023-07-13T04:35:26;11.95;;;3.35;;
21036;SDS011;10677;50.942;4.028;2023-07-13T04:37:52;13.55;;;3.40;;
21036;SDS011;10677;50.942;4.028;2023-07-13T04:40:18;10.73;;;3.33;;
21036;SDS011;10677;50.942;4.028;2023-07-13T04:42:44;15.00;;;3.78;;
21036;SDS011;10677;50.942;4.028;2023-07-13T04:45:12;16.05;;;3.72;;
21036;SDS011;10677;50.942;4.028;2023-07-13T04:47:38;13.82;;;3.75;;
21036;SDS011;10677;50.942;4.028;2023-07-13T04:50:05;16.38;;;3.80;;
21036;SDS011;10677;50.942;4.028;2023-07-13T04:52:31;13.88;;;3.40;;
21036;SDS011;10677;50.942;4.028;2023-07-13T04:54:58;10.63;;;3.05;;
21036;SDS011;10677;50.942;4.028;2023-07-13T04:57:24;16.85;;;3.88;;
21036;SDS011;10677;50.942;4.028;2023-07-13T04:59:50;16.90;;;3.85;;
21036;SDS011;10677;50.942;4.028;2023-07-13T05:02:16;14.85;;;3.75;;
21036;SDS011;10677;50.942;4.028;2023-07-13T05:04:41;13.48;;;3.03;;
21036;SDS011;10677;50.942;4.028;2023-07-13T05:07:07;11.90;;;3.60;;
21036;SDS011;10677;50.942;4.028;2023-07-13T05:09:32;15.68;;;3.72;;
21036;SDS011;10677;50.942;4.028;2023-07-13T05:11:58;14.50;;;3.90;;
21036;SDS011;10677;50.942;4.028;2023-07-13T05:14:24;10.85;;;3.63;;
21036;SDS011;10677;50.942;4.028;2023-07-13T05:16:49;10.32;;;3.17;;
21036;SDS011;10677;50.942;4.028;2023-07-13T05:19:15;12.02;;;3.40;;
21036;SDS011;10677;50.942;4.028;2023-07-13T05:21:40;14.30;;;3.55;;
21036;SDS011;10677;50.942;4.028;2023-07-13T05:24:06;13.23;;;3.60;;
21036;SDS011;10677;50.942;4.028;2023-07-13T05:26:32;17.50;;;3.65;;
21036;SDS011;10677;50.942;4.028;2023-07-13T05:28:57;13.57;;;3.92;;
21036;SDS011;10677;50.942;4.028;2023-07-13T05:31:23;15.52;;;3.17;;
21036;SDS011;10677;50.942;4.028;2023-07-13T05:33:49;10.38;;;2.72;;
21036;SDS011;10677;50.942;4.028;2023-07-13T05:36:14;15.57;;;3.63;;
21036;SDS011;10677;50.942;4.028;2023-07-13T05:38:40;13.60;;;3.67;;
21036;SDS011;10677;50.942;4.028;2023-07-13T05:41:06;15.85;;;3.78;;
21036;SDS011;10677;50.942;4.028;2023-07-13T05:43:32;13.43;;;3.58;;
21036;SDS011;10677;50.942;4.028;2023-07-13T05:45:58;11.23;;;3.33;;
21036;SDS011;10677;50.942;4.028;2023-07-13T05:48:23;16.13;;;3.35;;
21036;SDS011;10677;50.942;4.028;2023-07-13T05:50:49;13.02;;;3.20;;
21036;SDS011;10677;50.942;4.028;2023-07-13T05:53:15;11.88;;;3.38;;
21036;SDS011;10677;50.942;4.028;2023-07-13T05:55:41;15.48;;;3.33;;
21036;SDS011;10677;50.942;4.028;2023-07-13T05:58:08;12.40;;;3.00;;
21036;SDS011;10677;50.942;4.028;2023-07-13T06:00:33;14.25;;;3.67;;
21036;SDS011;10677;50.942;4.028;2023-07-13T06:02:59;11.43;;;3.20;;
21036;SDS011;10677;50.942;4.028;2023-07-13T06:05:25;16.33;;;3.80;;
21036;SDS011;10677;50.942;4.028;2023-07-13T06:07:50;14.23;;;3.85;;
21036;SDS011;10677;50.942;4.028;2023-07-13T06:10:16;14.38;;;3.10;;
21036;SDS011;10677;50.942;4.028;2023-07-13T06:12:42;15.27;;;3.88;;
21036;SDS011;10677;50.942;4.028;2023-07-13T06:15:08;14.18;;;3.28;;
21036;SDS011;10677;50.942;4.028;2023-07-13T06:17:33;14.95;;;3.47;;
21036;SDS011;10677;50.942;4.028;2023-07-13T06:19:59;14.32;;;3.65;;
21036;SDS011;10677;50.942;4.028;2023-07-13T06:22:25;9.50;;;3.17;;
21036;SDS011;10677;50.942;4.028;2023-07-13T06:24:51;12.32;;;3.03;;
21036;SDS011;10677;50.942;4.028;2023-07-13T06:27:17;13.75;;;3.03;;
21036;SDS011;10677;50.942;4.028;2023-07-13T06:29:43;12.60;;;3.15;;
21036;SDS011;10677;50.942;4.028;2023-07-13T06:32:10;15.57;;;3.67;;
21036;SDS011;10677;50.942;4.028;2023-07-13T06:34:36;16.58;;;4.32;;
21036;SDS011;10677;50.942;4.028;2023-07-13T06:37:01;18.23;;;3.80;;
21036;SDS011;10677;50.942;4.028;2023-07-13T06:39:27;15.25;;;3.33;;
21036;SDS011;10677;50.942;4.028;2023-07-13T06:41:53;13.35;;;3.40;;
21036;SDS011;10677;50.942;4.028;2023-07-13T06:44:19;18.10;;;3.55;;
21036;SDS011;10677;50.942;4.028;2023-07-13T06:46:45;17.02;;;3.45;;
21036;SDS011;10677;50.942;4.028;2023-07-13T06:49:11;14.98;;;3.80;;
21036;SDS011;10677;50.942;4.028;2023-07-13T06:51:36;16.13;;;3.10;;
21036;SDS011;10677;50.942;4.028;2023-07-13T06:54:02;11.02;;;3.13;;
21036;SDS011;10677;50.942;4.028;2023-07-13T06:56:28;13.30;;;3.33;;
21036;SDS011;10677;50.942;4.028;2023-07-13T06:58:54;15.82;;;4.25;;
21036;SDS011;10677;50.942;4.028;2023-07-13T07:01:20;12.93;;;3.00;;
21036;SDS011;10677;50.942;4.028;2023-07-13T07:03:45;15.45;;;3.30;;
21036;SDS011;10677;50.942;4.028;2023-07-13T07:06:13;15.95;;;3.35;;
21036;SDS011;10677;50.942;4.028;2023-07-13T07:08:41;15.40;;;3.13;;
21036;SDS011;10677;50.942;4.028;2023-07-13T07:11:08;17.73;;;3.20;;
21036;SDS011;10677;50.942;4.028;2023-07-13T07:13:37;19.25;;;4.18;;
21036;SDS011;10677;50.942;4.028;2023-07-13T07:16:02;14.68;;;3.55;;
21036;SDS011;10677;50.942;4.028;2023-07-13T07:18:28;11.77;;;2.90;;
21036;SDS011;10677;50.942;4.028;2023-07-13T07:20:54;11.82;;;3.38;;
21036;SDS011;10677;50.942;4.028;2023-07-13T07:23:19;18.65;;;3.00;;
21036;SDS011;10677;50.942;4.028;2023-07-13T07:25:45;13.18;;;3.28;;
21036;SDS011;10677;50.942;4.028;2023-07-13T07:28:11;12.80;;;3.22;;
21036;SDS011;10677;50.942;4.028;2023-07-13T07:30:41;14.57;;;3.40;;
21036;SDS011;10677;50.942;4.028;2023-07-13T07:33:08;10.95;;;3.30;;
21036;SDS011;10677;50.942;4.028;2023-07-13T07:35:34;13.50;;;3.40;;
21036;SDS011;10677;50.942;4.028;2023-07-13T07:37:59;13.43;;;3.03;;
21036;SDS011;10677;50.942;4.028;2023-07-13T07:40:25;11.00;;;2.83;;
21036;SDS011;10677;50.942;4.028;2023-07-13T07:42:51;11.70;;;3.28;;
21036;SDS011;10677;50.942;4.028;2023-07-13T07:45:17;12.13;;;2.92;;
21036;SDS011;10677;50.942;4.028;2023-07-13T07:47:43;13.40;;;3.08;;
21036;SDS011;10677;50.942;4.028;2023-07-13T07:50:08;11.68;;;2.78;;
21036;SDS011;10677;50.942;4.028;2023-07-13T07:52:34;8.57;;;3.08;;
21036;SDS011;10677;50.942;4.028;2023-07-13T07:55:00;13.40;;;2.92;;
21036;SDS011;10677;50.942;4.028;2023-07-13T07:57:26;9.95;;;2.92;;
21036;SDS011;10677;50.942;4.028;2023-07-13T07:59:51;9.98;;;2.47;;
21036;SDS011;10677;50.942;4.028;2023-07-13T08:02:17;13.25;;;3.20;;
21036;SDS011;10677;50.942;4.028;2023-07-13T08:04:42;11.35;;;2.97;;
21036;SDS011;10677;50.942;4.028;2023-07-13T08:07:08;12.00;;;2.90;;
21036;SDS011;10677;50.942;4.028;2023-07-13T08:09:34;6.35;;;2.13;;
21036;SDS011;10677;50.942;4.028;2023-07-13T08:12:00;15.77;;;2.97;;
21036;SDS011;10677;50.942;4.028;2023-07-13T08:14:25;10.27;;;2.67;;
21036;SDS011;10677;50.942;4.028;2023-07-13T08:16:51;10.18;;;2.58;;
21036;SDS011;10677;50.942;4.028;2023-07-13T08:19:17;12.40;;;2.70;;
21036;SDS011;10677;50.942;4.028;2023-07-13T08:21:42;10.93;;;2.20;;
21036;SDS011;10677;50.942;4.028;2023-07-13T08:24:08;10.18;;;2.70;;
21036;SDS011;10677;50.942;4.028;2023-07-13T08:26:34;11.18;;;2.72;;
21036;SDS011;10677;50.942;4.028;2023-07-13T08:29:00;14.32;;;2.22;;
21036;SDS011;10677;50.942;4.028;2023-07-13T08:31:26;9.65;;;3.22;;
21036;SDS011;10677;50.942;4.028;2023-07-13T08:33:51;14.20;;;2.70;;
21036;SDS011;10677;50.942;4.028;2023-07-13T08:36:17;12.70;;;2.75;;
21036;SDS011;10677;50.942;4.028;2023-07-13T08:38:43;10.48;;;2.60;;
21036;SDS011;10677;50.942;4.028;2023-07-13T08:41:16;7.90;;;2.60;;
21036;SDS011;10677;50.942;4.028;2023-07-13T08:43:45;9.75;;;2.17;;
21036;SDS011;10677;50.942;4.028;2023-07-13T08:48:50;9.18;;;2.45;;
21036;SDS011;10677;50.942;4.028;2023-07-13T08:51:30;11.73;;;2.63;;
21036;SDS011;10677;50.942;4.028;2023-07-13T08:57:12;9.65;;;2.13;;
21036;SDS011;10677;50.942;4.028;2023-07-13T08:59:40;8.25;;;1.98;;
21036;SDS011;10677;50.942;4.028;2023-07-13T09:05:25;8.07;;;2.13;;
21036;SDS011;10677;50.942;4.028;2023-07-13T09:10:32;10.18;;;2.20;;
21036;SDS011;10677;50.942;4.028;2023-07-13T09:15:58;6.18;;;1.90;;
21036;SDS011;10677;50.942;4.028;2023-07-13T09:18:28;9.18;;;2.20;;
21036;SDS011;10677;50.942;4.028;2023-07-13T09:21:00;10.75;;;2.22;;
21036;SDS011;10677;50.942;4.028;2023-07-13T09:23:39;6.68;;;1.75;;
21036;SDS011;10677;50.942;4.028;2023-07-13T09:26:12;6.68;;;1.95;;
21036;SDS011;10677;50.942;4.028;2023-07-13T09:28:51;10.82;;;2.30;;
21036;SDS011;10677;50.942;4.028;2023-07-13T09:33:54;8.43;;;1.80;;
21036;SDS011;10677;50.942;4.028;2023-07-13T09:39:03;10.60;;;1.70;;
21036;SDS011;10677;50.942;4.028;2023-07-13T09:45:09;6.30;;;1.80;;
21036;SDS011;10677;50.942;4.028;2023-07-13T09:47:27;9.02;;;2.53;;
21036;SDS011;10677;50.942;4.028;2023-07-13T09:50:03;6.07;;;1.95;;
21036;SDS011;10677;50.942;4.028;2023-07-13T09:52:42;7.68;;;1.98;;
21036;SDS011;10677;50.942;4.028;2023-07-13T09:55:26;9.30;;;2.63;;
21036;SDS011;10677;50.942;4.028;2023-07-13T09:57:54;6.72;;;1.77;;
21036;SDS011;10677;50.942;4.028;2023-07-13T10:00:22;8.65;;;1.77;;
21036;SDS011;10677;50.942;4.028;2023-07-13T10:03:03;9.52;;;1.95;;
21036;SDS011;10677;50.942;4.028;2023-07-13T10:05:41;6.43;;;1.70;;
21036;SDS011;10677;50.942;4.028;2023-07-13T10:08:18;5.57;;;1.80;;
21036;SDS011;10677;50.942;4.028;2023-07-13T10:10:44;6.53;;;1.42;;
21036;SDS011;10677;50.942;4.028;2023-07-13T10:13:26;8.10;;;1.70;;
21036;SDS011;10677;50.942;4.028;2023-07-13T10:16:01;6.35;;;1.77;;
21036;SDS011;10677;50.942;4.028;2023-07-13T10:18:31;7.78;;;1.63;;
21036;SDS011;10677;50.942;4.028;2023-07-13T10:21:11;4.65;;;1.50;;
21036;SDS011;10677;50.942;4.028;2023-07-13T10:23:45;6.63;;;2.00;;
21036;SDS011;10677;50.942;4.028;2023-07-13T10:26:17;6.32;;;1.50;;
21036;SDS011;10677;50.942;4.028;2023-07-13T10:28:54;5.55;;;1.55;;
21036;SDS011;10677;50.942;4.028;2023-07-13T10:31:22;6.28;;;1.42;;
21036;SDS011;10677;50.942;4.028;2023-07-13T10:33:50;8.35;;;2.33;;
21036;SDS011;10677;50.942;4.028;2023-07-13T10:36:17;3.42;;;1.23;;
21036;SDS011;10677;50.942;4.028;2023-07-13T10:38:59;6.80;;;1.65;;
21036;SDS011;10677;50.942;4.028;2023-07-13T10:41:27;6.65;;;1.35;;
21036;SDS011;10677;50.942;4.028;2023-07-13T10:43:56;6.40;;;1.30;;
21036;SDS011;10677;50.942;4.028;2023-07-13T10:46:24;4.57;;;1.40;;
21036;SDS011;10677;50.942;4.028;2023-07-13T10:48:54;6.80;;;1.50;;
21036;SDS011;10677;50.942;4.028;2023-07-13T10:51:27;8.35;;;1.60;;
21036;SDS011;10677;50.942;4.028;2023-07-13T10:54:10;6.68;;;1.63;;
21036;SDS011;10677;50.942;4.028;2023-07-13T10:56:40;5.32;;;1.50;;
21036;SDS011;10677;50.942;4.028;2023-07-13T11:01:55;4.70;;;1.05;;
21036;SDS011;10677;50.942;4.028;2023-07-13T11:04:22;5.90;;;1.55;;
21036;SDS011;10677;50.942;4.028;2023-07-13T11:06:52;5.28;;;1.40;;
21036;SDS011;10677;50.942;4.028;2023-07-13T11:09:32;9.45;;;1.77;;
21036;SDS011;10677;50.942;4.028;2023-07-13T11:12:08;8.18;;;1.50;;
21036;SDS011;10677;50.942;4.028;2023-07-13T11:20:08;5.65;;;1.20;;
21036;SDS011;10677;50.942;4.028;2023-07-13T11:23:26;5.95;;;1.20;;
21036;SDS011;10677;50.942;4.028;2023-07-13T11:25:42;7.43;;;1.50;;
21036;SDS011;10677;50.942;4.028;2023-07-13T11:30:38;12.07;;;2.15;;
21036;SDS011;10677;50.942;4.028;2023-07-13T11:33:19;6.95;;;1.92;;
21036;SDS011;10677;50.942;4.028;2023-07-13T11:38:27;10.43;;;2.58;;
21036;SDS011;10677;50.942;4.028;2023-07-13T11:40:56;5.97;;;1.70;;
21036;SDS011;10677;50.942;4.028;2023-07-13T11:43:28;5.22;;;2.00;;
21036;SDS011;10677;50.942;4.028;2023-07-13T11:45:53;6.72;;;1.70;;
21036;SDS011;10677;50.942;4.028;2023-07-13T11:51:04;3.35;;;1.92;;
21036;SDS011;10677;50.942;4.028;2023-07-13T11:53:35;6.55;;;2.03;;
21036;SDS011;10677;50.942;4.028;2023-07-13T11:56:05;7.68;;;2.50;;
21036;SDS011;10677;50.942;4.028;2023-07-13T11:58:32;6.75;;;2.88;;
21036;SDS011;10677;50.942;4.028;2023-07-13T12:00:59;5.55;;;2.20;;
21036;SDS011;10677;50.942;4.028;2023-07-13T12:03:29;7.55;;;2.45;;
21036;SDS011;10677;50.942;4.028;2023-07-13T12:06:01;5.43;;;2.20;;
21036;SDS011;10677;50.942;4.028;2023-07-13T12:08:30;4.80;;;2.45;;
21036;SDS011;10677;50.942;4.028;2023-07-13T12:11:03;7.57;;;2.30;;
21036;SDS011;10677;50.942;4.028;2023-07-13T12:13:35;5.03;;;1.90;;
21036;SDS011;10677;50.942;4.028;2023-07-13T12:16:07;6.07;;;2.25;;
21036;SDS011;10677;50.942;4.028;2023-07-13T12:18:37;5.88;;;1.70;;
21036;SDS011;10677;50.942;4.028;2023-07-13T12:21:03;5.97;;;1.80;;
21036;SDS011;10677;50.942;4.028;2023-07-13T12:23:31;5.40;;;1.85;;
21036;SDS011;10677;50.942;4.028;2023-07-13T12:26:01;5.25;;;1.40;;
21036;SDS011;10677;50.942;4.028;2023-07-13T12:31:22;4.20;;;1.80;;
21036;SDS011;10677;50.942;4.028;2023-07-13T12:34:07;4.90;;;1.60;;
21036;SDS011;10677;50.942;4.028;2023-07-13T12:36:34;6.35;;;1.63;;
21036;SDS011;10677;50.942;4.028;2023-07-13T12:39:04;4.50;;;1.85;;
21036;SDS011;10677;50.942;4.028;2023-07-13T12:41:41;3.45;;;1.40;;
21036;SDS011;10677;50.942;4.028;2023-07-13T12:44:10;4.95;;;1.58;;
21036;SDS011;10677;50.942;4.028;2023-07-13T12:46:38;4.85;;;1.50;;
21036;SDS011;10677;50.942;4.028;2023-07-13T12:49:05;4.80;;;1.90;;
21036;SDS011;10677;50.942;4.028;2023-07-13T12:51:32;3.88;;;1.60;;
21036;SDS011;10677;50.942;4.028;2023-07-13T12:54:19;5.85;;;1.30;;
21036;SDS011;10677;50.942;4.028;2023-07-13T12:56:44;4.45;;;1.50;;
21036;SDS011;10677;50.942;4.028;2023-07-13T12:59:16;6.68;;;1.50;;
21036;SDS011;10677;50.942;4.028;2023-07-13T13:01:45;5.30;;;1.55;;
21036;SDS011;10677;50.942;4.028;2023-07-13T13:04:11;4.05;;;1.40;;
21036;SDS011;10677;50.942;4.028;2023-07-13T13:06:38;6.30;;;1.55;;
21036;SDS011;10677;50.942;4.028;2023-07-13T13:09:05;5.78;;;1.40;;
21036;SDS011;10677;50.942;4.028;2023-07-13T13:11:39;6.13;;;1.85;;
21036;SDS011;10677;50.942;4.028;2023-07-13T13:14:06;6.13;;;1.50;;
21036;SDS011;10677;50.942;4.028;2023-07-13T13:16:34;4.53;;;1.67;;
21036;SDS011;10677;50.942;4.028;2023-07-13T13:19:23;3.05;;;1.23;;
21036;SDS011;10677;50.942;4.028;2023-07-13T13:21:53;6.40;;;1.98;;
21036;SDS011;10677;50.942;4.028;2023-07-13T13:24:22;4.20;;;1.60;;
21036;SDS011;10677;50.942;4.028;2023-07-13T13:26:49;4.93;;;1.10;;
21036;SDS011;10677;50.942;4.028;2023-07-13T13:29:17;6.15;;;1.52;;
21036;SDS011;10677;50.942;4.028;2023-07-13T13:31:45;6.18;;;1.58;;
21036;SDS011;10677;50.942;4.028;2023-07-13T13:34:12;7.03;;;1.80;;
21036;SDS011;10677;50.942;4.028;2023-07-13T13:36:42;5.60;;;1.70;;
21036;SDS011;10677;50.942;4.028;2023-07-13T13:39:22;6.05;;;1.48;;
21036;SDS011;10677;50.942;4.028;2023-07-13T13:41:50;4.60;;;1.52;;
21036;SDS011;10677;50.942;4.028;2023-07-13T13:44:17;5.28;;;1.33;;
21036;SDS011;10677;50.942;4.028;2023-07-13T13:46:50;5.60;;;1.75;;
21036;SDS011;10677;50.942;4.028;2023-07-13T13:49:19;6.75;;;1.60;;
21036;SDS011;10677;50.942;4.028;2023-07-13T13:51:48;5.85;;;1.70;;
21036;SDS011;10677;50.942;4.028;2023-07-13T13:54:15;6.18;;;1.67;;
21036;SDS011;10677;50.942;4.028;2023-07-13T13:56:46;6.10;;;2.30;;
21036;SDS011;10677;50.942;4.028;2023-07-13T13:59:14;3.35;;;1.40;;
21036;SDS011;10677;50.942;4.028;2023-07-13T14:01:40;4.82;;;1.38;;
21036;SDS011;10677;50.942;4.028;2023-07-13T14:04:13;6.07;;;1.50;;
21036;SDS011;10677;50.942;4.028;2023-07-13T14:06:42;3.97;;;1.50;;
21036;SDS011;10677;50.942;4.028;2023-07-13T14:09:10;3.67;;;1.23;;
21036;SDS011;10677;50.942;4.028;2023-07-13T14:11:38;6.53;;;2.10;;
21036;SDS011;10677;50.942;4.028;2023-07-13T14:14:08;4.57;;;1.38;;
21036;SDS011;10677;50.942;4.028;2023-07-13T14:16:39;6.22;;;1.63;;
21036;SDS011;10677;50.942;4.028;2023-07-13T14:19:07;4.00;;;1.58;;
21036;SDS011;10677;50.942;4.028;2023-07-13T14:21:36;4.95;;;1.20;;
21036;SDS011;10677;50.942;4.028;2023-07-13T14:24:02;3.40;;;1.05;;
21036;SDS011;10677;50.942;4.028;2023-07-13T14:26:28;5.35;;;1.17;;
21036;SDS011;10677;50.942;4.028;2023-07-13T14:28:57;4.65;;;1.27;;
21036;SDS011;10677;50.942;4.028;2023-07-13T14:31:26;2.05;;;0.90;;
21036;SDS011;10677;50.942;4.028;2023-07-13T14:33:54;3.10;;;1.10;;
21036;SDS011;10677;50.942;4.028;2023-07-13T14:39:01;4.40;;;1.10;;
21036;SDS011;10677;50.942;4.028;2023-07-13T14:41:37;4.45;;;1.33;;
21036;SDS011;10677;50.942;4.028;2023-07-13T14:44:08;4.95;;;1.23;;
21036;SDS011;10677;50.942;4.028;2023-07-13T14:46:42;5.03;;;1.48;;
21036;SDS011;10677;50.942;4.028;2023-07-13T14:51:40;3.38;;;1.20;;
21036;SDS011;10677;50.942;4.028;2023-07-13T14:54:07;2.72;;;1.02;;
21036;SDS011;10677;50.942;4.028;2023-07-13T14:56:33;4.05;;;1.25;;
21036;SDS011;10677;50.942;4.028;2023-07-13T14:58:59;3.95;;;1.30;;
21036;SDS011;10677;50.942;4.028;2023-07-13T15:01:25;3.58;;;0.90;;
21036;SDS011;10677;50.942;4.028;2023-07-13T15:03:51;4.45;;;1.20;;
21036;SDS011;10677;50.942;4.028;2023-07-13T15:06:17;3.53;;;1.38;;
21036;SDS011;10677;50.942;4.028;2023-07-13T15:08:44;5.72;;;1.40;;
21036;SDS011;10677;50.942;4.028;2023-07-13T15:11:11;5.90;;;1.30;;
21036;SDS011;10677;50.942;4.028;2023-07-13T15:13:37;4.38;;;1.08;;
21036;SDS011;10677;50.942;4.028;2023-07-13T15:16:04;2.90;;;1.20;;
21036;SDS011;10677;50.942;4.028;2023-07-13T15:18:38;5.15;;;1.25;;
21036;SDS011;10677;50.942;4.028;2023-07-13T15:21:08;3.53;;;1.10;;
21036;SDS011;10677;50.942;4.028;2023-07-13T15:23:35;4.88;;;1.42;;
21036;SDS011;10677;50.942;4.028;2023-07-13T15:26:01;3.50;;;1.10;;
21036;SDS011;10677;50.942;4.028;2023-07-13T15:28:28;4.00;;;1.20;;
21036;SDS011;10677;50.942;4.028;2023-07-13T15:30:54;4.50;;;0.90;;
21036;SDS011;10677;50.942;4.028;2023-07-13T15:33:24;2.67;;;1.10;;